sensor_id;sensor_type;location;lat;lon;timestamp;P1;durP1;ratioP1;P2;durP2;ratioP2
57605;SDS011;43430;48.204;11.556;2023-02-04T00:00:32;1.27;;;0.30;;
57605;SDS011;43430;48.204;11.556;2023-02-04T00:03:01;3.97;;;0.38;;
57605;SDS011;43430;48.204;11.556;2023-02-04T00:05:26;1.98;;;0.43;;
57605;SDS011;43430;48.204;11.556;2023-02-04T00:07:52;2.17;;;0.50;;
57605;SDS011;43430;48.204;11.556;2023-02-04T00:10:18;2.20;;;0.50;;
57605;SDS011;43430;48.204;11.556;2023-02-04T00:12:44;2.05;;;0.80;;
57605;SDS011;43430;48.204;11.556;2023-02-04T00:15:12;1.88;;;0.88;;
57605;SDS011;43430;48.204;11.556;2023-02-04T00:17:37;2.50;;;0.80;;
57605;SDS011;43430;48.204;11.556;2023-02-04T00:20:06;2.60;;;0.60;;
57605;SDS011;43430;48.204;11.556;2023-02-04T00:24:57;3.97;;;0.73;;
57605;SDS011;43430;48.204;11.556;2023-02-04T00:27:22;2.60;;;0.60;;
57605;SDS011;43430;48.204;11.556;2023-02-04T00:29:48;2.05;;;0.35;;
57605;SDS011;43430;48.204;11.556;2023-02-04T00:32:16;2.10;;;0.60;;
57605;SDS011;43430;48.204;11.556;2023-02-04T00:34:42;2.55;;;0.60;;
57605;SDS011;43430;48.204;11.556;2023-02-04T00:37:07;2.22;;;0.80;;
57605;SDS011;43430;48.204;11.556;2023-02-04T00:39:33;2.22;;;0.40;;
57605;SDS011;43430;48.204;11.556;2023-02-04T00:42:01;1.75;;;0.47;;
57605;SDS011;43430;48.204;11.556;2023-02-04T00:44:27;3.70;;;0.40;;
57605;SDS011;43430;48.204;11.556;2023-02-04T00:46:53;4.25;;;0.77;;
57605;SDS011;43430;48.204;11.556;2023-02-04T00:49:24;2.17;;;0.52;;
57605;SDS011;43430;48.204;11.556;2023-02-04T00:51:50;1.90;;;0.52;;
57605;SDS011;43430;48.204;11.556;2023-02-04T00:54:15;2.33;;;0.55;;
57605;SDS011;43430;48.204;11.556;2023-02-04T00:56:44;3.38;;;0.70;;
57605;SDS011;43430;48.204;11.556;2023-02-04T00:59:09;1.95;;;0.50;;
57605;SDS011;43430;48.204;11.556;2023-02-04T01:01:35;2.13;;;0.43;;
57605;SDS011;43430;48.204;11.556;2023-02-04T01:04:01;3.80;;;0.80;;
57605;SDS011;43430;48.204;11.556;2023-02-04T01:06:26;1.90;;;0.60;;
57605;SDS011;43430;48.204;11.556;2023-02-04T01:09:18;1.70;;;0.35;;
57605;SDS011;43430;48.204;11.556;2023-02-04T01:11:44;1.73;;;0.45;;
57605;SDS011;43430;48.204;11.556;2023-02-04T01:14:13;2.72;;;0.65;;
57605;SDS011;43430;48.204;11.556;2023-02-04T01:16:39;1.50;;;0.35;;
57605;SDS011;43430;48.204;11.556;2023-02-04T01:19:04;2.42;;;0.73;;
57605;SDS011;43430;48.204;11.556;2023-02-04T01:21:30;2.53;;;0.63;;
57605;SDS011;43430;48.204;11.556;2023-02-04T01:24:01;2.45;;;0.60;;
57605;SDS011;43430;48.204;11.556;2023-02-04T01:26:27;4.43;;;0.50;;
57605;SDS011;43430;48.204;11.556;2023-02-04T01:28:55;3.03;;;0.52;;
57605;SDS011;43430;48.204;11.556;2023-02-04T01:31:23;4.32;;;0.57;;
57605;SDS011;43430;48.204;11.556;2023-02-04T01:33:48;2.20;;;0.70;;
57605;SDS011;43430;48.204;11.556;2023-02-04T01:36:14;5.97;;;0.50;;
57605;SDS011;43430;48.204;11.556;2023-02-04T01:38:46;3.83;;;0.57;;
57605;SDS011;43430;48.204;11.556;2023-02-04T01:41:12;3.33;;;0.55;;
57605;SDS011;43430;48.204;11.556;2023-02-04T01:43:38;3.72;;;0.52;;
57605;SDS011;43430;48.204;11.556;2023-02-04T01:46:06;3.88;;;0.50;;
57605;SDS011;43430;48.204;11.556;2023-02-04T01:48:32;3.63;;;1.25;;
57605;SDS011;43430;48.204;11.556;2023-02-04T01:51:01;5.45;;;0.52;;
57605;SDS011;43430;48.204;11.556;2023-02-04T01:53:29;3.97;;;0.40;;
57605;SDS011;43430;48.204;11.556;2023-02-04T01:55:55;3.75;;;0.55;;
57605;SDS011;43430;48.204;11.556;2023-02-04T01:58:20;3.40;;;0.45;;
57605;SDS011;43430;48.204;11.556;2023-02-04T02:00:46;7.43;;;0.70;;
57605;SDS011;43430;48.204;11.556;2023-02-04T02:03:11;6.85;;;1.25;;
57605;SDS011;43430;48.204;11.556;2023-02-04T02:05:47;3.25;;;0.40;;
57605;SDS011;43430;48.204;11.556;2023-02-04T02:08:16;5.55;;;0.50;;
57605;SDS011;43430;48.204;11.556;2023-02-04T02:10:44;6.10;;;0.75;;
57605;SDS011;43430;48.204;11.556;2023-02-04T02:13:12;4.70;;;0.45;;
57605;SDS011;43430;48.204;11.556;2023-02-04T02:15:41;3.70;;;0.80;;
57605;SDS011;43430;48.204;11.556;2023-02-04T02:18:07;6.03;;;0.60;;
57605;SDS011;43430;48.204;11.556;2023-02-04T02:20:33;6.43;;;0.40;;
57605;SDS011;43430;48.204;11.556;2023-02-04T02:23:05;3.80;;;0.70;;
57605;SDS011;43430;48.204;11.556;2023-02-04T02:25:53;3.80;;;0.40;;
57605;SDS011;43430;48.204;11.556;2023-02-04T02:28:20;8.30;;;1.00;;
57605;SDS011;43430;48.204;11.556;2023-02-04T02:30:47;4.35;;;1.08;;
57605;SDS011;43430;48.204;11.556;2023-02-04T02:33:17;8.80;;;1.00;;
57605;SDS011;43430;48.204;11.556;2023-02-04T02:35:44;8.93;;;0.80;;
57605;SDS011;43430;48.204;11.556;2023-02-04T02:38:14;7.45;;;0.95;;
57605;SDS011;43430;48.204;11.556;2023-02-04T02:40:41;8.55;;;1.15;;
57605;SDS011;43430;48.204;11.556;2023-02-04T02:43:08;10.25;;;0.93;;
57605;SDS011;43430;48.204;11.556;2023-02-04T02:45:37;8.07;;;0.70;;
57605;SDS011;43430;48.204;11.556;2023-02-04T02:48:03;6.80;;;1.27;;
57605;SDS011;43430;48.204;11.556;2023-02-04T02:50:29;7.15;;;1.15;;
57605;SDS011;43430;48.204;11.556;2023-02-04T02:52:56;5.47;;;0.65;;
57605;SDS011;43430;48.204;11.556;2023-02-04T02:55:23;6.72;;;0.93;;
57605;SDS011;43430;48.204;11.556;2023-02-04T02:57:50;8.93;;;0.98;;
57605;SDS011;43430;48.204;11.556;2023-02-04T03:00:21;8.50;;;0.70;;
57605;SDS011;43430;48.204;11.556;2023-02-04T03:03:10;8.73;;;1.48;;
57605;SDS011;43430;48.204;11.556;2023-02-04T03:05:40;5.97;;;0.95;;
57605;SDS011;43430;48.204;11.556;2023-02-04T03:08:07;5.43;;;0.70;;
57605;SDS011;43430;48.204;11.556;2023-02-04T03:10:34;6.18;;;0.98;;
57605;SDS011;43430;48.204;11.556;2023-02-04T03:13:00;11.13;;;0.98;;
57605;SDS011;43430;48.204;11.556;2023-02-04T03:15:27;14.82;;;1.17;;
57605;SDS011;43430;48.204;11.556;2023-02-04T03:17:52;9.93;;;1.02;;
57605;SDS011;43430;48.204;11.556;2023-02-04T03:20:21;6.30;;;1.23;;
57605;SDS011;43430;48.204;11.556;2023-02-04T03:22:49;7.63;;;1.13;;
57605;SDS011;43430;48.204;11.556;2023-02-04T03:25:15;11.50;;;1.48;;
57605;SDS011;43430;48.204;11.556;2023-02-04T03:27:41;11.10;;;1.05;;
57605;SDS011;43430;48.204;11.556;2023-02-04T03:30:06;8.02;;;1.70;;
57605;SDS011;43430;48.204;11.556;2023-02-04T03:32:32;7.95;;;1.02;;
57605;SDS011;43430;48.204;11.556;2023-02-04T03:34:58;23.65;;;1.52;;
57605;SDS011;43430;48.204;11.556;2023-02-04T03:37:23;8.77;;;1.20;;
57605;SDS011;43430;48.204;11.556;2023-02-04T03:39:49;8.02;;;2.03;;
57605;SDS011;43430;48.204;11.556;2023-02-04T03:42:14;8.20;;;1.05;;
57605;SDS011;43430;48.204;11.556;2023-02-04T03:44:40;13.40;;;1.33;;
57605;SDS011;43430;48.204;11.556;2023-02-04T03:47:05;15.25;;;1.92;;
57605;SDS011;43430;48.204;11.556;2023-02-04T03:49:30;12.77;;;1.80;;
57605;SDS011;43430;48.204;11.556;2023-02-04T03:51:56;12.55;;;1.13;;
57605;SDS011;43430;48.204;11.556;2023-02-04T03:54:22;9.32;;;1.15;;
57605;SDS011;43430;48.204;11.556;2023-02-04T03:56:47;6.50;;;0.90;;
57605;SDS011;43430;48.204;11.556;2023-02-04T03:59:12;12.77;;;1.65;;
57605;SDS011;43430;48.204;11.556;2023-02-04T04:01:38;7.93;;;1.17;;
57605;SDS011;43430;48.204;11.556;2023-02-04T04:04:03;6.95;;;1.50;;
57605;SDS011;43430;48.204;11.556;2023-02-04T04:06:31;9.20;;;1.23;;
57605;SDS011;43430;48.204;11.556;2023-02-04T04:08:57;9.80;;;1.13;;
57605;SDS011;43430;48.204;11.556;2023-02-04T04:11:22;12.15;;;1.52;;
57605;SDS011;43430;48.204;11.556;2023-02-04T04:13:47;6.25;;;0.90;;
57605;SDS011;43430;48.204;11.556;2023-02-04T04:16:13;8.45;;;1.48;;
57605;SDS011;43430;48.204;11.556;2023-02-04T04:18:38;9.73;;;0.63;;
57605;SDS011;43430;48.204;11.556;2023-02-04T04:21:04;8.68;;;1.00;;
57605;SDS011;43430;48.204;11.556;2023-02-04T04:23:29;7.88;;;1.38;;
57605;SDS011;43430;48.204;11.556;2023-02-04T04:25:55;8.50;;;1.60;;
57605;SDS011;43430;48.204;11.556;2023-02-04T04:28:28;13.00;;;1.17;;
57605;SDS011;43430;48.204;11.556;2023-02-04T04:30:54;15.30;;;1.42;;
57605;SDS011;43430;48.204;11.556;2023-02-04T04:33:19;11.52;;;1.30;;
57605;SDS011;43430;48.204;11.556;2023-02-04T04:35:45;6.25;;;0.77;;
57605;SDS011;43430;48.204;11.556;2023-02-04T04:38:13;7.53;;;0.95;;
57605;SDS011;43430;48.204;11.556;2023-02-04T04:40:42;5.40;;;0.73;;
57605;SDS011;43430;48.204;11.556;2023-02-04T04:43:10;8.68;;;1.48;;
57605;SDS011;43430;48.204;11.556;2023-02-04T04:45:36;6.30;;;1.48;;
57605;SDS011;43430;48.204;11.556;2023-02-04T04:48:01;8.98;;;1.10;;
57605;SDS011;43430;48.204;11.556;2023-02-04T04:50:27;8.32;;;1.13;;
57605;SDS011;43430;48.204;11.556;2023-02-04T04:52:53;8.55;;;1.02;;
57605;SDS011;43430;48.204;11.556;2023-02-04T04:55:18;12.57;;;1.38;;
57605;SDS011;43430;48.204;11.556;2023-02-04T04:57:44;7.05;;;1.25;;
57605;SDS011;43430;48.204;11.556;2023-02-04T05:00:10;3.78;;;0.90;;
57605;SDS011;43430;48.204;11.556;2023-02-04T05:02:40;7.97;;;0.98;;
57605;SDS011;43430;48.204;11.556;2023-02-04T05:05:09;8.45;;;0.82;;
57605;SDS011;43430;48.204;11.556;2023-02-04T05:07:34;8.43;;;0.52;;
57605;SDS011;43430;48.204;11.556;2023-02-04T05:10:00;6.68;;;0.50;;
57605;SDS011;43430;48.204;11.556;2023-02-04T05:12:28;5.22;;;0.68;;
57605;SDS011;43430;48.204;11.556;2023-02-04T05:14:54;9.18;;;1.33;;
57605;SDS011;43430;48.204;11.556;2023-02-04T05:17:21;7.53;;;1.27;;
57605;SDS011;43430;48.204;11.556;2023-02-04T05:19:47;9.05;;;1.33;;
57605;SDS011;43430;48.204;11.556;2023-02-04T05:22:12;9.27;;;1.00;;
57605;SDS011;43430;48.204;11.556;2023-02-04T05:24:38;8.38;;;1.15;;
57605;SDS011;43430;48.204;11.556;2023-02-04T05:27:03;5.50;;;1.13;;
57605;SDS011;43430;48.204;11.556;2023-02-04T05:29:29;15.55;;;1.58;;
57605;SDS011;43430;48.204;11.556;2023-02-04T05:31:54;11.70;;;0.88;;
57605;SDS011;43430;48.204;11.556;2023-02-04T05:34:22;8.07;;;0.70;;
57605;SDS011;43430;48.204;11.556;2023-02-04T05:36:48;12.20;;;1.25;;
57605;SDS011;43430;48.204;11.556;2023-02-04T05:39:16;8.50;;;0.90;;
57605;SDS011;43430;48.204;11.556;2023-02-04T05:41:46;5.50;;;0.43;;
57605;SDS011;43430;48.204;11.556;2023-02-04T05:44:12;9.18;;;0.90;;
57605;SDS011;43430;48.204;11.556;2023-02-04T05:46:37;13.82;;;1.48;;
57605;SDS011;43430;48.204;11.556;2023-02-04T05:51:38;6.90;;;0.90;;
57605;SDS011;43430;48.204;11.556;2023-02-04T05:54:04;4.18;;;0.47;;
57605;SDS011;43430;48.204;11.556;2023-02-04T05:56:33;5.57;;;0.93;;
57605;SDS011;43430;48.204;11.556;2023-02-04T05:59:01;11.10;;;0.88;;
57605;SDS011;43430;48.204;11.556;2023-02-04T06:01:26;7.68;;;0.88;;
57605;SDS011;43430;48.204;11.556;2023-02-04T06:03:52;7.85;;;0.82;;
57605;SDS011;43430;48.204;11.556;2023-02-04T06:06:17;7.20;;;0.98;;
57605;SDS011;43430;48.204;11.556;2023-02-04T06:08:45;2.53;;;0.73;;
57605;SDS011;43430;48.204;11.556;2023-02-04T06:11:10;11.63;;;1.42;;
57605;SDS011;43430;48.204;11.556;2023-02-04T06:13:36;4.88;;;0.65;;
57605;SDS011;43430;48.204;11.556;2023-02-04T06:16:01;9.63;;;0.80;;
57605;SDS011;43430;48.204;11.556;2023-02-04T06:18:30;11.43;;;1.05;;
57605;SDS011;43430;48.204;11.556;2023-02-04T06:20:58;16.48;;;1.33;;
57605;SDS011;43430;48.204;11.556;2023-02-04T06:23:26;9.73;;;1.17;;
57605;SDS011;43430;48.204;11.556;2023-02-04T06:25:53;11.93;;;1.25;;
57605;SDS011;43430;48.204;11.556;2023-02-04T06:28:22;9.25;;;1.60;;
57605;SDS011;43430;48.204;11.556;2023-02-04T06:30:48;6.03;;;1.27;;
57605;SDS011;43430;48.204;11.556;2023-02-04T06:33:13;16.60;;;1.88;;
57605;SDS011;43430;48.204;11.556;2023-02-04T06:35:39;8.20;;;1.25;;
57605;SDS011;43430;48.204;11.556;2023-02-04T06:38:04;6.25;;;0.65;;
57605;SDS011;43430;48.204;11.556;2023-02-04T06:40:30;4.32;;;0.70;;
57605;SDS011;43430;48.204;11.556;2023-02-04T06:42:55;4.80;;;0.73;;
57605;SDS011;43430;48.204;11.556;2023-02-04T06:45:21;9.68;;;1.40;;
57605;SDS011;43430;48.204;11.556;2023-02-04T06:47:46;9.20;;;1.55;;
57605;SDS011;43430;48.204;11.556;2023-02-04T06:50:12;6.45;;;0.93;;
57605;SDS011;43430;48.204;11.556;2023-02-04T06:52:42;9.75;;;0.95;;
57605;SDS011;43430;48.204;11.556;2023-02-04T06:55:11;6.95;;;0.60;;
57605;SDS011;43430;48.204;11.556;2023-02-04T06:57:37;10.02;;;1.40;;
57605;SDS011;43430;48.204;11.556;2023-02-04T07:00:10;9.68;;;1.08;;
57605;SDS011;43430;48.204;11.556;2023-02-04T07:02:41;7.03;;;1.27;;
57605;SDS011;43430;48.204;11.556;2023-02-04T07:05:08;5.97;;;0.75;;
57605;SDS011;43430;48.204;11.556;2023-02-04T07:07:36;8.07;;;1.15;;
57605;SDS011;43430;48.204;11.556;2023-02-04T07:10:24;11.23;;;1.75;;
57605;SDS011;43430;48.204;11.556;2023-02-04T07:12:53;10.07;;;1.02;;
57605;SDS011;43430;48.204;11.556;2023-02-04T07:15:24;8.95;;;0.85;;
57605;SDS011;43430;48.204;11.556;2023-02-04T07:17:49;4.57;;;0.60;;
57605;SDS011;43430;48.204;11.556;2023-02-04T07:20:15;4.20;;;0.80;;
57605;SDS011;43430;48.204;11.556;2023-02-04T07:22:57;10.52;;;1.00;;
57605;SDS011;43430;48.204;11.556;2023-02-04T07:25:27;8.52;;;0.60;;
57605;SDS011;43430;48.204;11.556;2023-02-04T07:27:56;7.75;;;1.27;;
57605;SDS011;43430;48.204;11.556;2023-02-04T07:30:23;5.78;;;0.85;;
57605;SDS011;43430;48.204;11.556;2023-02-04T07:32:48;10.20;;;0.77;;
57605;SDS011;43430;48.204;11.556;2023-02-04T07:35:14;8.30;;;1.08;;
57605;SDS011;43430;48.204;11.556;2023-02-04T07:37:39;7.25;;;1.00;;
57605;SDS011;43430;48.204;11.556;2023-02-04T07:40:05;12.68;;;1.00;;
57605;SDS011;43430;48.204;11.556;2023-02-04T07:42:31;4.65;;;0.57;;
57605;SDS011;43430;48.204;11.556;2023-02-04T07:44:59;10.52;;;1.27;;
57605;SDS011;43430;48.204;11.556;2023-02-04T07:47:25;5.57;;;0.63;;
57605;SDS011;43430;48.204;11.556;2023-02-04T07:49:51;11.00;;;1.10;;
57605;SDS011;43430;48.204;11.556;2023-02-04T07:52:42;9.55;;;0.82;;
57605;SDS011;43430;48.204;11.556;2023-02-04T07:58:32;7.25;;;0.75;;
57605;SDS011;43430;48.204;11.556;2023-02-04T08:04:34;13.00;;;0.80;;
57605;SDS011;43430;48.204;11.556;2023-02-04T08:13:59;10.27;;;0.60;;
57605;SDS011;43430;48.204;11.556;2023-02-04T08:16:28;6.22;;;0.80;;
57605;SDS011;43430;48.204;11.556;2023-02-04T08:19:06;11.93;;;0.70;;
57605;SDS011;43430;48.204;11.556;2023-02-04T08:21:35;8.20;;;0.88;;
57605;SDS011;43430;48.204;11.556;2023-02-04T08:24:05;9.77;;;0.90;;
57605;SDS011;43430;48.204;11.556;2023-02-04T08:26:36;9.35;;;1.63;;
57605;SDS011;43430;48.204;11.556;2023-02-04T08:29:08;10.13;;;1.05;;
57605;SDS011;43430;48.204;11.556;2023-02-04T08:35:02;11.38;;;0.75;;
57605;SDS011;43430;48.204;11.556;2023-02-04T08:40:54;8.20;;;0.85;;
57605;SDS011;43430;48.204;11.556;2023-02-04T08:44:02;8.65;;;0.90;;
57605;SDS011;43430;48.204;11.556;2023-02-04T08:46:49;6.90;;;0.73;;
57605;SDS011;43430;48.204;11.556;2023-02-04T08:55:39;6.18;;;0.60;;
57605;SDS011;43430;48.204;11.556;2023-02-04T08:58:50;4.60;;;0.43;;
57605;SDS011;43430;48.204;11.556;2023-02-04T09:01:52;6.70;;;0.75;;
57605;SDS011;43430;48.204;11.556;2023-02-04T09:04:21;5.63;;;0.55;;
57605;SDS011;43430;48.204;11.556;2023-02-04T09:07:04;7.57;;;0.80;;
57605;SDS011;43430;48.204;11.556;2023-02-04T09:10:17;9.07;;;0.95;;
57605;SDS011;43430;48.204;11.556;2023-02-04T09:12:58;5.32;;;0.45;;
57605;SDS011;43430;48.204;11.556;2023-02-04T09:15:29;4.53;;;0.57;;
57605;SDS011;43430;48.204;11.556;2023-02-04T09:17:58;6.85;;;1.00;;
57605;SDS011;43430;48.204;11.556;2023-02-04T09:20:35;5.55;;;1.13;;
57605;SDS011;43430;48.204;11.556;2023-02-04T09:23:13;9.82;;;0.90;;
57605;SDS011;43430;48.204;11.556;2023-02-04T09:25:54;11.93;;;1.15;;
57605;SDS011;43430;48.204;11.556;2023-02-04T09:28:46;7.80;;;0.90;;
57605;SDS011;43430;48.204;11.556;2023-02-04T09:31:19;12.70;;;1.38;;
57605;SDS011;43430;48.204;11.556;2023-02-04T09:34:12;5.28;;;0.50;;
57605;SDS011;43430;48.204;11.556;2023-02-04T09:37:17;7.85;;;0.47;;
57605;SDS011;43430;48.204;11.556;2023-02-04T09:39:48;7.43;;;0.80;;
57605;SDS011;43430;48.204;11.556;2023-02-04T09:42:19;7.47;;;0.75;;
57605;SDS011;43430;48.204;11.556;2023-02-04T09:45:16;6.68;;;0.50;;
57605;SDS011;43430;48.204;11.556;2023-02-04T09:47:49;10.77;;;0.50;;
57605;SDS011;43430;48.204;11.556;2023-02-04T09:50:45;7.75;;;1.15;;
57605;SDS011;43430;48.204;11.556;2023-02-04T09:53:24;7.65;;;1.20;;
57605;SDS011;43430;48.204;11.556;2023-02-04T09:56:16;8.48;;;2.25;;
57605;SDS011;43430;48.204;11.556;2023-02-04T09:58:56;14.93;;;1.17;;
57605;SDS011;43430;48.204;11.556;2023-02-04T10:11:02;6.88;;;0.70;;
57605;SDS011;43430;48.204;11.556;2023-02-04T10:13:34;5.85;;;0.60;;
57605;SDS011;43430;48.204;11.556;2023-02-04T10:16:02;8.98;;;0.47;;
57605;SDS011;43430;48.204;11.556;2023-02-04T10:18:39;3.22;;;0.65;;
57605;SDS011;43430;48.204;11.556;2023-02-04T10:21:44;2.75;;;0.20;;
57605;SDS011;43430;48.204;11.556;2023-02-04T10:24:17;2.55;;;0.38;;
57605;SDS011;43430;48.204;11.556;2023-02-04T10:26:52;4.78;;;0.90;;
57605;SDS011;43430;48.204;11.556;2023-02-04T10:29:53;4.55;;;0.28;;
57605;SDS011;43430;48.204;11.556;2023-02-04T10:32:46;2.65;;;0.20;;
57605;SDS011;43430;48.204;11.556;2023-02-04T10:35:16;2.38;;;0.30;;
57605;SDS011;43430;48.204;11.556;2023-02-04T10:38:03;1.83;;;0.22;;
57605;SDS011;43430;48.204;11.556;2023-02-04T10:40:34;2.35;;;0.20;;
57605;SDS011;43430;48.204;11.556;2023-02-04T10:43:21;1.45;;;0.22;;
57605;SDS011;43430;48.204;11.556;2023-02-04T10:45:59;3.75;;;0.40;;
57605;SDS011;43430;48.204;11.556;2023-02-04T10:48:29;2.60;;;0.30;;
57605;SDS011;43430;48.204;11.556;2023-02-04T10:51:11;2.97;;;0.40;;
57605;SDS011;43430;48.204;11.556;2023-02-04T10:53:40;4.93;;;0.70;;
57605;SDS011;43430;48.204;11.556;2023-02-04T10:56:30;1.13;;;0.30;;
57605;SDS011;43430;48.204;11.556;2023-02-04T10:59:01;2.10;;;0.20;;
57605;SDS011;43430;48.204;11.556;2023-02-04T11:01:43;2.25;;;0.22;;
57605;SDS011;43430;48.204;11.556;2023-02-04T11:04:15;2.65;;;0.30;;
57605;SDS011;43430;48.204;11.556;2023-02-04T11:06:56;2.90;;;0.30;;
57605;SDS011;43430;48.204;11.556;2023-02-04T11:09:39;1.45;;;0.30;;
57605;SDS011;43430;48.204;11.556;2023-02-04T11:12:21;2.17;;;0.30;;
57605;SDS011;43430;48.204;11.556;2023-02-04T11:15:06;1.95;;;0.35;;
57605;SDS011;43430;48.204;11.556;2023-02-04T11:18:01;4.55;;;0.35;;
57605;SDS011;43430;48.204;11.556;2023-02-04T11:20:56;7.97;;;0.52;;
57605;SDS011;43430;48.204;11.556;2023-02-04T11:26:12;5.20;;;0.60;;
57605;SDS011;43430;48.204;11.556;2023-02-04T11:33:43;4.15;;;0.70;;
57605;SDS011;43430;48.204;11.556;2023-02-04T11:36:09;1.90;;;0.20;;
57605;SDS011;43430;48.204;11.556;2023-02-04T11:38:37;2.60;;;0.20;;
57605;SDS011;43430;48.204;11.556;2023-02-04T11:41:11;2.13;;;0.38;;
57605;SDS011;43430;48.204;11.556;2023-02-04T11:43:44;5.30;;;0.40;;
57605;SDS011;43430;48.204;11.556;2023-02-04T11:46:27;1.30;;;0.40;;
57605;SDS011;43430;48.204;11.556;2023-02-04T11:48:59;3.22;;;0.30;;
57605;SDS011;43430;48.204;11.556;2023-02-04T11:51:27;4.50;;;0.50;;
57605;SDS011;43430;48.204;11.556;2023-02-04T11:54:00;2.33;;;0.50;;
57605;SDS011;43430;48.204;11.556;2023-02-04T11:56:29;3.42;;;0.70;;
57605;SDS011;43430;48.204;11.556;2023-02-04T11:58:59;2.70;;;0.30;;
57605;SDS011;43430;48.204;11.556;2023-02-04T12:01:34;1.52;;;0.38;;
57605;SDS011;43430;48.204;11.556;2023-02-04T12:04:03;3.00;;;0.30;;
57605;SDS011;43430;48.204;11.556;2023-02-04T12:06:37;3.13;;;0.30;;
57605;SDS011;43430;48.204;11.556;2023-02-04T12:09:24;3.67;;;0.60;;
57605;SDS011;43430;48.204;11.556;2023-02-04T12:11:56;5.25;;;2.28;;
57605;SDS011;43430;48.204;11.556;2023-02-04T12:14:35;1.52;;;0.38;;
57605;SDS011;43430;48.204;11.556;2023-02-04T12:17:13;2.28;;;0.20;;
57605;SDS011;43430;48.204;11.556;2023-02-04T12:19:43;2.15;;;0.40;;
57605;SDS011;43430;48.204;11.556;2023-02-04T12:22:09;0.98;;;0.20;;
57605;SDS011;43430;48.204;11.556;2023-02-04T12:24:43;2.78;;;0.50;;
57605;SDS011;43430;48.204;11.556;2023-02-04T12:27:09;2.63;;;0.50;;
57605;SDS011;43430;48.204;11.556;2023-02-04T12:29:34;1.77;;;0.40;;
57605;SDS011;43430;48.204;11.556;2023-02-04T12:31:59;1.88;;;0.35;;
57605;SDS011;43430;48.204;11.556;2023-02-04T12:34:25;0.95;;;0.20;;
57605;SDS011;43430;48.204;11.556;2023-02-04T12:36:50;2.03;;;0.20;;
57605;SDS011;43430;48.204;11.556;2023-02-04T12:39:16;2.78;;;0.43;;
57605;SDS011;43430;48.204;11.556;2023-02-04T12:41:41;2.33;;;0.30;;
57605;SDS011;43430;48.204;11.556;2023-02-04T12:44:07;2.55;;;0.30;;
57605;SDS011;43430;48.204;11.556;2023-02-04T12:46:32;1.05;;;0.20;;
57605;SDS011;43430;48.204;11.556;2023-02-04T12:49:00;2.05;;;0.25;;
57605;SDS011;43430;48.204;11.556;2023-02-04T12:51:26;3.03;;;0.63;;
57605;SDS011;43430;48.204;11.556;2023-02-04T12:53:51;2.03;;;0.55;;
57605;SDS011;43430;48.204;11.556;2023-02-04T12:56:17;2.45;;;0.30;;
57605;SDS011;43430;48.204;11.556;2023-02-04T12:58:44;1.83;;;0.40;;
57605;SDS011;43430;48.204;11.556;2023-02-04T13:01:10;2.80;;;0.30;;
57605;SDS011;43430;48.204;11.556;2023-02-04T13:03:35;3.08;;;0.30;;
57605;SDS011;43430;48.204;11.556;2023-02-04T13:06:01;4.45;;;1.10;;
57605;SDS011;43430;48.204;11.556;2023-02-04T13:08:26;2.80;;;0.75;;
57605;SDS011;43430;48.204;11.556;2023-02-04T13:10:52;3.08;;;0.32;;
57605;SDS011;43430;48.204;11.556;2023-02-04T13:13:20;1.55;;;0.20;;
57605;SDS011;43430;48.204;11.556;2023-02-04T13:15:48;1.88;;;0.20;;
57605;SDS011;43430;48.204;11.556;2023-02-04T13:18:14;2.20;;;0.30;;
57605;SDS011;43430;48.204;11.556;2023-02-04T13:20:42;2.08;;;0.28;;
57605;SDS011;43430;48.204;11.556;2023-02-04T13:23:07;2.38;;;0.30;;
57605;SDS011;43430;48.204;11.556;2023-02-04T13:25:33;1.65;;;0.20;;
57605;SDS011;43430;48.204;11.556;2023-02-04T13:27:58;2.20;;;0.68;;
57605;SDS011;43430;48.204;11.556;2023-02-04T13:30:24;1.42;;;0.22;;
57605;SDS011;43430;48.204;11.556;2023-02-04T13:32:49;1.58;;;0.20;;
57605;SDS011;43430;48.204;11.556;2023-02-04T13:35:15;2.53;;;0.20;;
57605;SDS011;43430;48.204;11.556;2023-02-04T13:37:40;2.70;;;0.45;;
57605;SDS011;43430;48.204;11.556;2023-02-04T13:40:06;1.92;;;0.60;;
57605;SDS011;43430;48.204;11.556;2023-02-04T13:42:33;1.42;;;0.40;;
57605;SDS011;43430;48.204;11.556;2023-02-04T13:44:59;1.85;;;0.30;;
57605;SDS011;43430;48.204;11.556;2023-02-04T13:47:24;1.30;;;0.20;;
57605;SDS011;43430;48.204;11.556;2023-02-04T13:49:50;1.15;;;0.38;;
57605;SDS011;43430;48.204;11.556;2023-02-04T13:52:15;0.98;;;0.15;;
57605;SDS011;43430;48.204;11.556;2023-02-04T13:54:42;1.05;;;0.17;;
57605;SDS011;43430;48.204;11.556;2023-02-04T13:57:08;1.48;;;0.20;;
57605;SDS011;43430;48.204;11.556;2023-02-04T13:59:33;3.38;;;0.13;;
57605;SDS011;43430;48.204;11.556;2023-02-04T14:01:59;1.92;;;0.25;;
57605;SDS011;43430;48.204;11.556;2023-02-04T14:04:24;3.78;;;0.20;;
57605;SDS011;43430;48.204;11.556;2023-02-04T14:06:51;1.27;;;0.10;;
57605;SDS011;43430;48.204;11.556;2023-02-04T14:09:16;1.05;;;0.20;;
57605;SDS011;43430;48.204;11.556;2023-02-04T14:11:42;1.15;;;0.20;;
57605;SDS011;43430;48.204;11.556;2023-02-04T14:14:08;2.53;;;0.20;;
57605;SDS011;43430;48.204;11.556;2023-02-04T14:16:33;2.38;;;0.20;;
57605;SDS011;43430;48.204;11.556;2023-02-04T14:18:59;1.75;;;0.20;;
57605;SDS011;43430;48.204;11.556;2023-02-04T14:21:24;0.73;;;0.10;;
57605;SDS011;43430;48.204;11.556;2023-02-04T14:23:50;1.83;;;0.20;;
57605;SDS011;43430;48.204;11.556;2023-02-04T14:26:15;2.13;;;0.40;;
57605;SDS011;43430;48.204;11.556;2023-02-04T14:28:44;3.97;;;0.70;;
57605;SDS011;43430;48.204;11.556;2023-02-04T14:31:09;1.65;;;0.20;;
57605;SDS011;43430;48.204;11.556;2023-02-04T14:33:34;7.20;;;2.30;;
57605;SDS011;43430;48.204;11.556;2023-02-04T14:36:00;2.85;;;0.60;;
57605;SDS011;43430;48.204;11.556;2023-02-04T14:38:25;4.68;;;0.70;;
57605;SDS011;43430;48.204;11.556;2023-02-04T14:40:55;1.88;;;0.32;;
57605;SDS011;43430;48.204;11.556;2023-02-04T14:43:21;1.40;;;0.30;;
57605;SDS011;43430;48.204;11.556;2023-02-04T14:45:46;1.60;;;0.30;;
57605;SDS011;43430;48.204;11.556;2023-02-04T14:48:12;1.60;;;0.28;;
57605;SDS011;43430;48.204;11.556;2023-02-04T14:50:37;0.82;;;0.20;;
57605;SDS011;43430;48.204;11.556;2023-02-04T14:53:02;2.03;;;0.35;;
57605;SDS011;43430;48.204;11.556;2023-02-04T14:55:28;0.80;;;0.20;;
57605;SDS011;43430;48.204;11.556;2023-02-04T14:57:53;1.23;;;0.25;;
57605;SDS011;43430;48.204;11.556;2023-02-04T15:00:19;1.38;;;0.40;;
57605;SDS011;43430;48.204;11.556;2023-02-04T15:02:45;1.85;;;0.20;;
57605;SDS011;43430;48.204;11.556;2023-02-04T15:05:11;2.00;;;0.22;;
57605;SDS011;43430;48.204;11.556;2023-02-04T15:07:37;2.08;;;0.20;;
57605;SDS011;43430;48.204;11.556;2023-02-04T15:10:03;1.17;;;0.10;;
57605;SDS011;43430;48.204;11.556;2023-02-04T15:12:42;0.88;;;0.13;;
57605;SDS011;43430;48.204;11.556;2023-02-04T15:15:08;1.55;;;0.20;;
57605;SDS011;43430;48.204;11.556;2023-02-04T15:17:34;2.40;;;0.20;;
57605;SDS011;43430;48.204;11.556;2023-02-04T15:20:00;1.23;;;0.20;;
57605;SDS011;43430;48.204;11.556;2023-02-04T15:22:37;4.28;;;0.30;;
57605;SDS011;43430;48.204;11.556;2023-02-04T15:25:02;1.95;;;0.38;;
57605;SDS011;43430;48.204;11.556;2023-02-04T15:27:28;1.80;;;0.40;;
57605;SDS011;43430;48.204;11.556;2023-02-04T15:29:53;1.23;;;0.20;;
57605;SDS011;43430;48.204;11.556;2023-02-04T15:32:19;1.05;;;0.15;;
57605;SDS011;43430;48.204;11.556;2023-02-04T15:34:45;4.20;;;0.50;;
57605;SDS011;43430;48.204;11.556;2023-02-04T15:39:43;1.20;;;0.25;;